AEA84SZ LEMD-EHAM
Flight info
| Callsign | AEA84SZ |
|---|---|
| Flight time | N/A |
| Altitude | 38000 |
| Route | RBO DCT OSTIX N867 DGO N858 ABRIX DCT CNA DCT ADABI DCT BOKNO UN858 VANAD UN874 BAMES UT191 PODEM UN873 BAZOS DCT LUMIL DCT BELOB UY873 DENUT |
| Aircraft | B38M/M-SDE1FGHILORVWXY/HB1 |
Departure
| Time | N/A |
|---|---|
| Airport | Adolfo Suárez Madrid–Barajas Airport (LEMD) |
Arrival
| Time | 2026-04-29 14:46 |
|---|---|
| Airport | Amsterdam Airport Schiphol (EHAM) |
| Time | Latitude | Longitude | Altitude | Speed | Heading |
|---|---|---|---|---|---|
| 2026-04-29 14:35 | 51.87811 | 4.04359 | 11056 ft | 280 kts | 59° |
| 2026-04-29 14:35 | 51.88846 | 4.07017 | 10743 ft | 279 kts | 59° |
| 2026-04-29 14:36 | 51.89883 | 4.09673 | 10430 ft | 278 kts | 58° |
| 2026-04-29 14:36 | 51.91204 | 4.11935 | 10105 ft | 280 kts | 34° |
| 2026-04-29 14:36 | 51.93042 | 4.12976 | 9812 ft | 284 kts | 9° |
| 2026-04-29 14:36 | 51.95010 | 4.12857 | 9581 ft | 282 kts | 0° |
| 2026-04-29 14:37 | 51.96905 | 4.13049 | 9417 ft | 266 kts | 21° |
| 2026-04-29 14:37 | 51.98492 | 4.14434 | 9359 ft | 257 kts | 43° |
| 2026-04-29 14:37 | 51.99711 | 4.16527 | 9331 ft | 255 kts | 52° |
| 2026-04-29 14:37 | 52.00943 | 4.18610 | 9330 ft | 256 kts | 47° |
| 2026-04-29 14:38 | 52.02178 | 4.20635 | 8983 ft | 257 kts | 48° |
| 2026-04-29 14:38 | 52.03437 | 4.22730 | 8431 ft | 260 kts | 49° |
| 2026-04-29 14:38 | 52.04698 | 4.24852 | 7880 ft | 263 kts | 49° |
| 2026-04-29 14:38 | 52.05967 | 4.27001 | 7508 ft | 260 kts | 50° |
| 2026-04-29 14:39 | 52.07194 | 4.29099 | 7196 ft | 256 kts | 50° |
| 2026-04-29 14:39 | 52.08332 | 4.31048 | 6818 ft | 257 kts | 50° |
| 2026-04-29 14:39 | 52.09542 | 4.33125 | 6472 ft | 254 kts | 50° |
| 2026-04-29 14:39 | 52.10754 | 4.35211 | 6108 ft | 253 kts | 51° |
| 2026-04-29 14:40 | 52.11956 | 4.37281 | 5722 ft | 252 kts | 51° |
| 2026-04-29 14:40 | 52.13119 | 4.39284 | 5354 ft | 246 kts | 51° |
| 2026-04-29 14:40 | 52.14282 | 4.41291 | 4955 ft | 242 kts | 51° |
| 2026-04-29 14:40 | 52.15423 | 4.43259 | 4608 ft | 236 kts | 51° |
| 2026-04-29 14:41 | 52.16540 | 4.45185 | 4291 ft | 231 kts | 51° |
| 2026-04-29 14:41 | 52.17631 | 4.47069 | 3953 ft | 228 kts | 51° |
| 2026-04-29 14:41 | 52.18706 | 4.48930 | 3651 ft | 222 kts | 50° |
| 2026-04-29 14:41 | 52.19757 | 4.50687 | 3343 ft | 211 kts | 49° |
| 2026-04-29 14:42 | 52.20685 | 4.52465 | 3028 ft | 200 kts | 57° |
| 2026-04-29 14:42 | 52.21434 | 4.54298 | 2788 ft | 188 kts | 60° |
| 2026-04-29 14:42 | 52.22112 | 4.56057 | 2550 ft | 180 kts | 61° |
| 2026-04-29 14:42 | 52.22769 | 4.57742 | 2320 ft | 173 kts | 58° |
| 2026-04-29 14:43 | 52.23366 | 4.59304 | 2110 ft | 153 kts | 60° |
| 2026-04-29 14:43 | 52.23906 | 4.60715 | 1900 ft | 142 kts | 60° |
| 2026-04-29 14:43 | 52.24421 | 4.62060 | 1756 ft | 142 kts | 60° |
| 2026-04-29 14:43 | 52.24948 | 4.63430 | 1524 ft | 142 kts | 61° |
| 2026-04-29 14:44 | 52.25467 | 4.64783 | 1313 ft | 139 kts | 60° |
| 2026-04-29 14:44 | 52.25974 | 4.66097 | 1130 ft | 135 kts | 59° |
| 2026-04-29 14:44 | 52.26477 | 4.67405 | 939 ft | 138 kts | 59° |
| 2026-04-29 14:44 | 52.26988 | 4.68730 | 746 ft | 138 kts | 59° |
| 2026-04-29 14:45 | 52.27494 | 4.70058 | 577 ft | 136 kts | 57° |
| 2026-04-29 14:45 | 52.27994 | 4.71354 | 373 ft | 135 kts | 56° |
| 2026-04-29 14:45 | 52.28501 | 4.72650 | 202 ft | 135 kts | 58° |
| 2026-04-29 14:45 | 52.28997 | 4.73946 | 22 ft | 133 kts | 58° |
| 2026-04-29 14:46 | 52.29411 | 4.75025 | 0 ft | 78 kts | 58° |
| 2026-04-29 14:46 | 52.29617 | 4.75563 | 1 ft | 35 kts | 58° |
| 2026-04-29 14:46 | 52.29767 | 4.75792 | 1 ft | 28 kts | 27° |
| 2026-04-29 14:46 | 52.29890 | 4.75897 | 1 ft | 17 kts | 28° |
| 2026-04-29 14:47 | 52.29994 | 4.75999 | 1 ft | 18 kts | 47° |
| 2026-04-29 14:47 | 52.30057 | 4.76156 | 1 ft | 17 kts | 58° |
| 2026-04-29 14:47 | 52.30114 | 4.76304 | 1 ft | 12 kts | 57° |
| 2026-04-29 14:47 | 52.30162 | 4.76428 | 1 ft | 14 kts | 59° |
| 2026-04-29 14:48 | 52.30218 | 4.76580 | 1 ft | 17 kts | 59° |
| 2026-04-29 14:48 | 52.30279 | 4.76741 | 1 ft | 10 kts | 56° |
| 2026-04-29 14:48 | 52.30322 | 4.76847 | 1 ft | 13 kts | 56° |
| 2026-04-29 14:48 | 52.30374 | 4.76982 | 1 ft | 15 kts | 58° |
| 2026-04-29 14:49 | 52.30454 | 4.77025 | 1 ft | 15 kts | 336° |
| 2026-04-29 14:49 | 52.30545 | 4.76929 | 1 ft | 14 kts | 328° |
| 2026-04-29 14:49 | 52.30611 | 4.76817 | 1 ft | 14 kts | 303° |
| 2026-04-29 14:49 | 52.30657 | 4.76729 | 1 ft | 7 kts | 270° |
| 2026-04-29 14:50 | 52.30636 | 4.76660 | 1 ft | 6 kts | 237° |
| 2026-04-29 14:50 | 52.30626 | 4.76636 | 1 ft | 0 kts | 238° |
| 2026-04-29 14:50 | 52.30626 | 4.76635 | 1 ft | 0 kts | 238° |